createdAt,value
2022-09-11T00:02:31.276Z,14.73
2022-09-11T00:05:03.760Z,14.83
2022-09-11T00:07:35.316Z,15.09
2022-09-11T00:10:07.112Z,15.18
2022-09-11T00:12:38.719Z,15.21
2022-09-11T00:15:11.707Z,15.28
2022-09-11T00:17:48.665Z,15.00
2022-09-11T00:27:25.366Z,14.98
2022-09-11T00:32:52.510Z,14.36
2022-09-11T00:35:24.462Z,14.71
2022-09-11T00:37:57.481Z,14.68
2022-09-11T00:40:29.302Z,14.83
2022-09-11T00:43:01.483Z,14.76
2022-09-11T00:45:33.539Z,14.48
2022-09-11T00:48:08.843Z,14.65
2022-09-11T00:50:40.801Z,14.39
2022-09-11T00:53:18.101Z,14.33
2022-09-11T00:55:54.842Z,14.32
2022-09-11T00:58:31.522Z,14.30
2022-09-11T01:01:04.244Z,14.23
2022-09-11T01:03:39.580Z,14.17
2022-09-11T01:06:13.280Z,14.21
2022-09-11T01:08:45.668Z,14.23
2022-09-11T01:11:29.521Z,14.34
2022-09-11T01:14:10.450Z,14.44
2022-09-11T01:16:49.601Z,14.29
2022-09-11T01:19:34.462Z,14.21
2022-09-11T01:22:31.308Z,14.18
2022-09-11T01:25:17.870Z,14.26
2022-09-11T01:27:55.265Z,14.10
2022-09-11T01:30:31.861Z,14.21
2022-09-11T01:33:24.046Z,14.22
2022-09-11T01:36:01.990Z,14.25
2022-09-11T01:38:40.301Z,14.41
2022-09-11T01:41:17.829Z,14.47
2022-09-11T01:43:58.454Z,14.24
2022-09-11T01:46:35.056Z,14.44
2022-09-11T01:49:13.101Z,14.54
2022-09-11T01:51:45.682Z,14.45
2022-09-11T01:54:23.171Z,14.56
2022-09-11T01:57:00.777Z,14.44
2022-09-11T01:59:44.658Z,14.35
2022-09-11T02:02:29.644Z,14.43
2022-09-11T02:05:18.019Z,14.66
2022-09-11T02:07:58.887Z,14.53
2022-09-11T02:10:40.934Z,14.52
2022-09-11T02:13:18.631Z,14.54
2022-09-11T02:15:53.923Z,14.31
2022-09-11T02:18:30.136Z,14.17
2022-09-11T02:21:06.298Z,14.23
2022-09-11T02:27:00.851Z,14.08
2022-09-11T02:29:34.723Z,13.99
2022-09-11T02:32:06.852Z,13.94
2022-09-11T02:34:40.929Z,14.04
2022-09-11T02:37:26.997Z,13.89
2022-09-11T02:40:31.480Z,14.08
2022-09-11T02:43:25.513Z,13.98
2022-09-11T02:46:15.373Z,13.80
2022-09-11T02:49:00.494Z,13.59
2022-09-11T02:51:41.080Z,13.54
2022-09-11T02:54:25.731Z,13.59
2022-09-11T02:57:03.797Z,13.44
2022-09-11T02:59:39.591Z,13.46
2022-09-11T03:02:17.893Z,13.51
2022-09-11T03:04:50.902Z,13.58
2022-09-11T03:07:25.604Z,13.85
2022-09-11T03:09:59.487Z,13.57
2022-09-11T03:12:31.392Z,13.63
2022-09-11T03:15:03.266Z,13.55
2022-09-11T03:17:34.717Z,13.76
2022-09-11T03:20:07.604Z,13.70
2022-09-11T03:22:40.283Z,13.60
2022-09-11T03:25:15.455Z,13.62
2022-09-11T03:27:47.835Z,13.68
2022-09-11T03:30:19.586Z,13.85
2022-09-11T03:33:03.018Z,13.77
2022-09-11T03:35:34.752Z,13.77
2022-09-11T03:38:06.871Z,13.71
2022-09-11T03:40:41.764Z,13.67
2022-09-11T03:43:13.832Z,13.59
2022-09-11T03:45:45.805Z,13.57
2022-09-11T03:48:17.992Z,13.44
2022-09-11T03:50:50.174Z,13.00
2022-09-11T03:53:22.622Z,13.15
2022-09-11T03:55:57.141Z,13.04
2022-09-11T03:58:29.284Z,13.06
2022-09-11T04:01:00.823Z,12.93
2022-09-11T04:03:33.030Z,12.93
2022-09-11T04:06:06.642Z,13.11
2022-09-11T04:08:38.076Z,13.25
2022-09-11T04:11:15.490Z,13.19
2022-09-11T04:13:47.486Z,13.09
2022-09-11T04:16:22.247Z,13.30
2022-09-11T04:18:54.499Z,13.45
2022-09-11T04:21:25.760Z,13.34
2022-09-11T04:24:00.567Z,13.21
2022-09-11T04:26:36.070Z,13.27
2022-09-11T04:29:07.844Z,13.42
2022-09-11T04:31:41.692Z,13.14
2022-09-11T04:34:14.146Z,13.27
2022-09-11T04:36:45.508Z,13.25
2022-09-11T04:39:17.580Z,13.14
2022-09-11T04:41:51.910Z,13.30
2022-09-11T04:44:24.285Z,13.17
2022-09-11T04:46:56.742Z,13.18
2022-09-11T04:49:28.510Z,13.11
2022-09-11T04:52:03.164Z,13.15
2022-09-11T04:54:37.205Z,13.36
2022-09-11T04:57:12.209Z,13.53
2022-09-11T04:59:43.983Z,13.55
2022-09-11T05:02:15.616Z,13.53
2022-09-11T05:04:47.555Z,13.50
2022-09-11T05:07:19.051Z,13.70
2022-09-11T05:09:50.966Z,13.53
2022-09-11T05:12:25.254Z,13.61
2022-09-11T05:14:57.165Z,13.60
2022-09-11T05:17:28.619Z,13.94
2022-09-11T05:20:01.189Z,13.98
2022-09-11T05:22:33.212Z,13.79
2022-09-11T05:25:05.143Z,13.95
2022-09-11T05:27:39.232Z,13.83
2022-09-11T05:30:12.423Z,13.96
2022-09-11T05:32:43.815Z,14.19
2022-09-11T05:35:15.553Z,14.00
2022-09-11T05:37:47.279Z,13.93
2022-09-11T05:40:19.653Z,13.84
2022-09-11T05:42:55.775Z,14.06
2022-09-11T05:45:27.582Z,14.30
2022-09-11T05:47:59.118Z,13.98
2022-09-11T05:50:32.219Z,14.03
2022-09-11T05:53:03.804Z,14.06
2022-09-11T05:55:37.358Z,14.21
2022-09-11T05:58:11.626Z,14.36
2022-09-11T06:00:46.765Z,14.34
2022-09-11T06:03:19.543Z,14.33
2022-09-11T06:05:50.968Z,14.36
2022-09-11T06:08:21.808Z,14.51
2022-09-11T06:10:53.464Z,14.39
2022-09-11T06:13:27.355Z,14.47
2022-09-11T06:15:59.302Z,14.53
2022-09-11T06:18:30.516Z,14.79
2022-09-11T06:21:03.584Z,14.92
2022-09-11T06:23:34.687Z,15.00
2022-09-11T06:26:07.968Z,14.94
2022-09-11T06:28:42.999Z,15.03
2022-09-11T06:31:17.434Z,14.86
2022-09-11T06:33:51.423Z,15.01
2022-09-11T06:36:33.685Z,14.98
2022-09-11T06:39:05.609Z,15.14
2022-09-11T06:41:37.628Z,15.18
2022-09-11T06:44:13.119Z,15.18
2022-09-11T06:46:46.048Z,15.15
2022-09-11T06:49:17.798Z,15.09
2022-09-11T06:51:49.779Z,15.40
2022-09-11T06:54:21.789Z,15.48
2022-09-11T06:56:54.019Z,15.27
2022-09-11T06:59:29.140Z,15.26
2022-09-11T07:02:01.295Z,15.43
2022-09-11T07:04:33.161Z,15.60
2022-09-11T07:07:05.419Z,15.48
2022-09-11T07:09:40.088Z,15.84
2022-09-11T07:12:12.149Z,15.71
2022-09-11T07:14:47.116Z,15.62
2022-09-11T07:17:20.686Z,15.82
2022-09-11T07:20:13.499Z,15.79
2022-09-11T07:22:45.875Z,15.83
2022-09-11T07:25:18.454Z,16.00
2022-09-11T07:27:51.653Z,15.81
2022-09-11T07:30:27.449Z,15.82
2022-09-11T07:32:59.459Z,15.78
2022-09-11T07:35:31.475Z,15.73
2022-09-11T07:38:03.730Z,15.85
2022-09-11T07:40:35.683Z,15.80
2022-09-11T07:43:07.721Z,16.21
2022-09-11T07:45:42.265Z,16.25
2022-09-11T07:48:14.443Z,16.38
2022-09-11T07:50:46.111Z,16.48
2022-09-11T07:53:18.705Z,17.02
2022-09-11T07:55:51.586Z,17.23
2022-09-11T07:58:23.325Z,17.42
2022-09-11T08:01:05.344Z,17.43
2022-09-11T08:03:39.158Z,17.78
2022-09-11T08:06:20.111Z,17.92
2022-09-11T08:09:00.426Z,18.02
2022-09-11T08:11:35.246Z,17.50
2022-09-11T08:14:07.745Z,17.80
2022-09-11T08:16:47.373Z,17.97
2022-09-11T08:19:22.677Z,17.92
2022-09-11T08:21:56.275Z,17.76
2022-09-11T08:24:28.842Z,18.11
2022-09-11T08:27:00.922Z,18.10
2022-09-11T08:29:33.251Z,18.25
2022-09-11T08:32:08.451Z,17.84
2022-09-11T08:34:41.770Z,17.92
2022-09-11T08:37:13.851Z,17.94
2022-09-11T08:39:46.570Z,17.68
2022-09-11T08:42:52.783Z,17.70
2022-09-11T08:45:29.659Z,17.80
2022-09-11T08:48:04.932Z,17.34
2022-09-11T08:52:00.071Z,17.37
2022-09-11T08:54:58.958Z,17.56
2022-09-11T08:57:44.015Z,17.61
2022-09-11T09:00:22.578Z,17.95
2022-09-11T09:03:30.481Z,18.14
2022-09-11T09:06:21.603Z,17.55
2022-09-11T09:09:01.376Z,18.16
2022-09-11T09:11:43.198Z,17.91
2022-09-11T09:14:54.795Z,18.18
2022-09-11T09:17:31.716Z,17.92
2022-09-11T09:20:13.958Z,17.83
2022-09-11T09:22:52.839Z,17.83
2022-09-11T09:25:26.838Z,17.81
2022-09-11T09:28:02.556Z,17.64
2022-09-11T09:30:46.103Z,18.23
2022-09-11T09:33:50.003Z,17.73
2022-09-11T09:36:41.797Z,17.80
2022-09-11T09:39:16.957Z,17.90
2022-09-11T09:42:11.404Z,18.06
2022-09-11T09:44:55.807Z,18.25
2022-09-11T09:47:28.065Z,18.96
2022-09-11T09:50:01.346Z,18.87
2022-09-11T09:52:47.705Z,18.84
2022-09-11T09:55:30.944Z,19.44
2022-09-11T09:58:02.865Z,19.72
2022-09-11T10:00:34.489Z,20.19
2022-09-11T10:03:22.591Z,19.88
2022-09-11T10:05:56.345Z,19.10
2022-09-11T10:08:35.830Z,18.48
2022-09-11T10:11:09.453Z,18.73
2022-09-11T10:13:44.524Z,18.48
2022-09-11T10:16:24.225Z,18.38
2022-09-11T10:18:58.124Z,18.57
2022-09-11T10:21:33.785Z,18.71
2022-09-11T10:24:26.484Z,19.72
2022-09-11T10:26:58.333Z,19.86
2022-09-11T10:29:32.668Z,19.25
2022-09-11T10:32:05.687Z,19.42
2022-09-11T10:34:40.829Z,19.55
2022-09-11T10:37:44.314Z,19.29
2022-09-11T10:40:26.385Z,19.60
2022-09-11T10:43:01.865Z,19.30
2022-09-11T10:45:34.158Z,19.38
2022-09-11T10:48:19.893Z,19.04
2022-09-11T10:51:12.426Z,19.49
2022-09-11T10:53:56.891Z,19.25
2022-09-11T10:56:57.965Z,19.34
2022-09-11T10:59:39.125Z,19.37
2022-09-11T11:02:22.013Z,19.41
2022-09-11T11:04:54.205Z,19.48
2022-09-11T11:07:50.547Z,19.33
2022-09-11T11:10:35.427Z,18.95
2022-09-11T11:13:26.787Z,18.66
2022-09-11T11:16:08.424Z,18.14
2022-09-11T11:19:07.026Z,18.32
2022-09-11T11:22:00.944Z,18.05
2022-09-11T11:24:46.786Z,17.97
2022-09-11T11:27:46.566Z,18.20
2022-09-11T11:30:35.926Z,19.04
2022-09-11T11:33:32.566Z,19.52
2022-09-11T11:36:07.726Z,19.67
2022-09-11T11:38:47.230Z,19.70
2022-09-11T11:41:25.324Z,19.90
2022-09-11T11:44:00.644Z,19.85
2022-09-11T11:46:42.085Z,19.82
2022-09-11T11:49:20.186Z,20.15
2022-09-11T11:51:57.464Z,20.67
2022-09-11T11:54:35.098Z,20.23
2022-09-11T11:57:14.314Z,20.25
2022-09-11T12:00:09.905Z,19.60
2022-09-11T12:02:56.469Z,20.18
2022-09-11T12:05:39.379Z,20.49
2022-09-11T12:08:16.817Z,20.32
2022-09-11T12:10:57.218Z,20.27
2022-09-11T12:13:38.505Z,20.26
2022-09-11T12:16:17.448Z,20.20
2022-09-11T12:19:08.264Z,21.08
2022-09-11T12:22:08.538Z,20.86
2022-09-11T12:24:59.167Z,20.64
2022-09-11T12:27:55.949Z,20.32
2022-09-11T12:30:32.010Z,20.05
2022-09-11T12:33:04.230Z,20.25
2022-09-11T12:35:47.162Z,20.66
2022-09-11T12:38:36.640Z,19.96
2022-09-11T12:41:17.828Z,20.31
2022-09-11T12:43:52.027Z,20.12
2022-09-11T12:46:53.435Z,20.41
2022-09-11T12:49:28.345Z,20.15
2022-09-11T12:52:04.189Z,20.00
2022-09-11T12:54:41.281Z,20.01
2022-09-11T12:57:19.456Z,20.62
2022-09-11T12:59:59.653Z,19.70
2022-09-11T13:02:40.194Z,19.53
2022-09-11T13:05:23.992Z,19.68
2022-09-11T13:08:04.315Z,19.79
2022-09-11T13:10:38.573Z,20.25
2022-09-11T13:13:43.654Z,19.76
2022-09-11T13:16:25.854Z,19.75
2022-09-11T13:19:02.413Z,19.55
2022-09-11T13:21:41.092Z,19.37
2022-09-11T13:24:32.134Z,19.89
2022-09-11T13:27:09.694Z,20.19
2022-09-11T13:29:43.872Z,19.70
2022-09-11T13:32:21.122Z,19.24
2022-09-11T13:35:02.078Z,19.24
2022-09-11T13:37:39.713Z,19.23
2022-09-11T13:40:25.421Z,19.33
2022-09-11T13:42:56.971Z,19.35
2022-09-11T13:45:28.970Z,19.51
2022-09-11T13:48:00.242Z,19.63
2022-09-11T13:50:31.834Z,19.98
2022-09-11T13:53:03.775Z,19.84
2022-09-11T13:55:37.873Z,19.85
2022-09-11T13:58:26.309Z,20.47
2022-09-11T14:00:58.881Z,20.15
2022-09-11T14:03:33.702Z,19.52
2022-09-11T14:06:15.136Z,19.78
2022-09-11T14:08:55.252Z,19.88
2022-09-11T14:11:34.314Z,19.85
2022-09-11T14:14:11.890Z,19.39
2022-09-11T14:16:51.300Z,19.60
2022-09-11T14:19:25.125Z,19.55
2022-09-11T14:22:00.268Z,19.54
2022-09-11T14:24:39.380Z,19.85
2022-09-11T14:27:44.979Z,20.19
2022-09-11T14:30:36.945Z,19.48
2022-09-11T14:33:18.619Z,19.64
2022-09-11T14:35:51.719Z,19.42
2022-09-11T14:38:26.721Z,19.63
2022-09-11T14:41:02.188Z,19.79
2022-09-11T14:43:40.519Z,19.83
2022-09-11T14:46:12.584Z,19.55
2022-09-11T14:48:45.580Z,19.66
2022-09-11T14:51:17.340Z,19.47
2022-09-11T14:53:49.287Z,19.61
2022-09-11T14:56:20.781Z,19.68
2022-09-11T14:58:55.502Z,19.66
2022-09-11T15:01:27.070Z,19.62
2022-09-11T15:03:59.622Z,20.02
2022-09-11T15:06:31.441Z,19.55
2022-09-11T15:09:03.660Z,19.99
2022-09-11T15:11:39.367Z,20.22
2022-09-11T15:14:27.801Z,20.24
2022-09-11T15:17:08.880Z,20.21
2022-09-11T15:19:41.187Z,19.66
2022-09-11T15:22:13.639Z,19.38
2022-09-11T15:24:45.540Z,19.30
2022-09-11T15:27:17.439Z,18.89
2022-09-11T15:29:52.199Z,19.07
2022-09-11T15:32:24.239Z,19.10
2022-09-11T15:34:56.733Z,19.43
2022-09-11T15:37:27.733Z,19.09
2022-09-11T15:40:01.244Z,19.11
2022-09-11T15:42:34.443Z,19.12
2022-09-11T15:45:13.057Z,19.46
2022-09-11T15:47:48.491Z,19.44
2022-09-11T15:50:24.902Z,19.39
2022-09-11T15:52:56.145Z,18.81
2022-09-11T15:55:30.327Z,19.16
2022-09-11T15:58:02.901Z,18.95
2022-09-11T16:00:38.420Z,19.08
2022-09-11T16:03:16.495Z,19.00
2022-09-11T16:05:51.664Z,18.77
2022-09-11T16:08:26.031Z,18.67
2022-09-11T16:10:58.348Z,18.51
2022-09-11T16:13:32.728Z,19.01
2022-09-11T16:16:08.527Z,18.67
2022-09-11T16:18:42.803Z,18.91
2022-09-11T16:21:18.161Z,18.89
2022-09-11T16:23:55.065Z,18.53
2022-09-11T16:26:31.899Z,18.51
2022-09-11T16:29:03.087Z,18.16
2022-09-11T16:31:36.996Z,18.08
2022-09-11T16:34:09.209Z,18.59
2022-09-11T16:36:42.876Z,18.28
2022-09-11T16:39:19.236Z,17.97
2022-09-11T16:41:50.529Z,17.97
2022-09-11T16:44:22.665Z,18.19
2022-09-11T16:46:57.123Z,17.92
2022-09-11T16:49:28.245Z,18.00
2022-09-11T16:52:00.394Z,18.13
2022-09-11T16:54:31.937Z,18.45
2022-09-11T16:57:03.837Z,18.62
2022-09-11T16:59:35.131Z,18.25
2022-09-11T17:02:11.450Z,18.48
2022-09-11T17:04:46.247Z,18.61
2022-09-11T17:07:18.550Z,18.46
2022-09-11T17:09:55.163Z,18.52
2022-09-11T17:12:28.002Z,18.18
2022-09-11T17:14:59.286Z,17.71
2022-09-11T17:17:34.361Z,17.89
2022-09-11T17:20:05.806Z,18.04
2022-09-11T17:22:37.812Z,18.02
2022-09-11T17:25:09.819Z,18.09
2022-09-11T17:27:41.381Z,18.03
2022-09-11T17:30:15.742Z,18.08
2022-09-11T17:32:50.601Z,18.15
2022-09-11T17:35:21.864Z,18.05
2022-09-11T17:37:53.670Z,17.94
2022-09-11T17:40:25.301Z,17.92
2022-09-11T17:42:56.895Z,17.58
2022-09-11T17:45:28.993Z,17.74
2022-09-11T17:48:03.463Z,17.66
2022-09-11T17:50:35.595Z,17.41
2022-09-11T17:53:07.064Z,17.58
2022-09-11T17:55:39.331Z,17.77
2022-09-11T17:58:11.281Z,17.76
2022-09-11T18:00:42.567Z,17.75
2022-09-11T18:03:16.725Z,17.57
2022-09-11T18:05:48.397Z,17.58
2022-09-11T18:08:20.455Z,17.59
2022-09-11T18:10:59.527Z,17.57
2022-09-11T18:13:37.138Z,17.57
2022-09-11T18:16:11.503Z,17.58
2022-09-11T18:19:12.638Z,17.48
2022-09-11T18:21:49.297Z,17.46
2022-09-11T18:24:29.738Z,17.42
2022-09-11T18:27:05.649Z,17.25
2022-09-11T18:29:44.280Z,17.22
2022-09-11T18:32:16.440Z,17.21
2022-09-11T18:34:51.863Z,17.16
2022-09-11T18:37:24.150Z,17.15
2022-09-11T18:39:56.774Z,17.07
2022-09-11T18:42:29.154Z,17.05
2022-09-11T18:45:33.137Z,16.98
2022-09-11T18:48:15.632Z,16.93
2022-09-11T18:50:52.711Z,16.88
2022-09-11T18:53:26.396Z,16.84
2022-09-11T18:56:03.105Z,16.76
2022-09-11T18:58:37.581Z,16.68
2022-09-11T19:01:11.834Z,16.60
2022-09-11T19:03:44.955Z,16.56
2022-09-11T19:06:24.887Z,16.52
2022-09-11T19:09:00.624Z,16.48
2022-09-11T19:11:34.426Z,16.40
2022-09-11T19:14:08.247Z,16.30
2022-09-11T19:16:43.824Z,16.20
2022-09-11T19:19:15.985Z,16.20
2022-09-11T19:21:51.846Z,16.13
2022-09-11T19:24:28.487Z,16.04
2022-09-11T19:27:00.989Z,16.04
2022-09-11T19:29:33.346Z,16.03
2022-09-11T19:32:06.925Z,16.03
2022-09-11T19:34:47.041Z,15.98
2022-09-11T19:37:24.744Z,15.84
2022-09-11T19:40:00.359Z,15.84
2022-09-11T19:42:34.246Z,15.83
2022-09-11T19:45:06.456Z,15.75
2022-09-11T19:47:39.048Z,15.69
2022-09-11T19:50:16.486Z,15.69
2022-09-11T19:52:51.727Z,15.67
2022-09-11T19:55:23.874Z,15.60
2022-09-11T19:57:56.187Z,15.53
2022-09-11T20:00:28.493Z,15.48
2022-09-11T20:03:01.219Z,15.50
2022-09-11T20:05:33.378Z,15.45
2022-09-11T20:08:10.832Z,15.43
2022-09-11T20:10:45.629Z,15.37
2022-09-11T20:13:18.669Z,15.34
2022-09-11T20:15:57.034Z,15.40
2022-09-11T20:18:29.510Z,15.35
2022-09-11T20:21:05.249Z,15.37
2022-09-11T20:23:41.812Z,15.32
2022-09-11T20:26:17.481Z,15.27
2022-09-11T20:28:51.672Z,15.27
2022-09-11T20:31:25.793Z,15.23
2022-09-11T20:34:00.527Z,15.21
2022-09-11T20:36:33.269Z,15.19
2022-09-11T20:39:09.609Z,15.14
2022-09-11T20:41:41.762Z,15.12
2022-09-11T20:44:14.742Z,15.13
2022-09-11T20:46:47.774Z,15.12
2022-09-11T20:49:20.584Z,15.11
2022-09-11T20:51:54.196Z,15.13
2022-09-11T20:54:29.282Z,15.09
2022-09-11T20:57:01.444Z,15.06
2022-09-11T20:59:34.063Z,15.06
2022-09-11T21:02:06.356Z,15.08
2022-09-11T21:04:39.603Z,15.10
2022-09-11T21:07:11.731Z,15.08
2022-09-11T21:09:47.045Z,15.07
2022-09-11T21:12:19.443Z,15.05
2022-09-11T21:14:51.806Z,15.06
2022-09-11T21:17:24.083Z,15.03
2022-09-11T21:19:57.516Z,15.07
2022-09-11T21:22:30.003Z,15.04
2022-09-11T21:25:04.981Z,15.05
2022-09-11T21:27:37.562Z,15.09
2022-09-11T21:30:11.504Z,15.09
2022-09-11T21:32:43.731Z,15.16
2022-09-11T21:35:16.264Z,15.15
2022-09-11T21:37:48.737Z,15.20
2022-09-11T21:40:24.523Z,15.21
2022-09-11T21:42:56.481Z,15.24
2022-09-11T21:45:29.263Z,15.25
2022-09-11T21:48:01.291Z,15.29
2022-09-11T21:50:33.863Z,15.26
2022-09-11T21:53:06.263Z,15.29
2022-09-11T21:55:45.182Z,15.27
2022-09-11T21:58:20.624Z,15.31
2022-09-11T22:00:52.986Z,15.33
2022-09-11T22:03:25.362Z,15.37
2022-09-11T22:05:57.901Z,15.40
2022-09-11T22:08:30.462Z,15.37
2022-09-11T22:11:08.103Z,15.41
2022-09-11T22:13:40.790Z,15.40
2022-09-11T22:16:15.858Z,15.42
2022-09-11T22:18:51.741Z,15.42
2022-09-11T22:21:24.481Z,15.42
2022-09-11T22:23:57.444Z,15.47
2022-09-11T22:26:33.404Z,15.52
2022-09-11T22:29:05.652Z,15.55
2022-09-11T22:31:37.952Z,15.54
2022-09-11T22:34:11.082Z,15.56
2022-09-11T22:36:43.783Z,15.70
2022-09-11T22:39:16.226Z,15.74
2022-09-11T22:41:51.801Z,15.70
2022-09-11T22:44:24.122Z,15.62
2022-09-11T22:46:56.467Z,15.54
2022-09-11T22:49:28.684Z,15.69
2022-09-11T22:52:01.163Z,15.33
2022-09-11T22:54:33.141Z,15.56
2022-09-11T22:57:09.310Z,15.70
2022-09-11T22:59:41.581Z,15.74
2022-09-11T23:02:14.216Z,15.70
2022-09-11T23:05:06.621Z,15.69
2022-09-11T23:07:36.223Z,15.57
2022-09-11T23:10:10.331Z,15.57
2022-09-11T23:12:45.764Z,15.55
2022-09-11T23:15:17.922Z,15.51
2022-09-11T23:17:50.822Z,15.41
2022-09-11T23:20:23.390Z,15.30
2022-09-11T23:22:56.802Z,15.26
2022-09-11T23:25:29.301Z,15.23
2022-09-11T23:28:04.343Z,15.12
2022-09-11T23:30:36.445Z,15.14
2022-09-11T23:33:09.001Z,15.08
2022-09-11T23:35:42.120Z,14.96
2022-09-11T23:38:14.583Z,14.88
2022-09-11T23:40:46.830Z,14.84
2022-09-11T23:43:22.084Z,14.75
2022-09-11T23:45:54.485Z,14.72
2022-09-11T23:48:27.302Z,14.68
2022-09-11T23:51:01.446Z,14.66
2022-09-11T23:53:34.345Z,14.60
2022-09-11T23:56:06.963Z,14.57
2022-09-11T23:58:42.179Z,14.55
